createdAt,value
2016-03-18T00:00:02.475Z,1006.76
2016-03-18T00:01:02.492Z,1006.75
2016-03-18T00:02:02.496Z,1006.72
2016-03-18T00:03:02.514Z,1006.72
2016-03-18T00:04:02.531Z,1006.7
2016-03-18T00:05:02.550Z,1006.69
2016-03-18T00:06:02.569Z,1006.7
2016-03-18T00:07:02.577Z,1006.69
2016-03-18T00:08:02.581Z,1006.72
2016-03-18T00:09:02.598Z,1006.64
2016-03-18T00:10:02.600Z,1006.67
2016-03-18T00:11:02.620Z,1006.66
2016-03-18T00:12:02.637Z,1006.67
2016-03-18T00:13:02.640Z,1006.66
2016-03-18T00:14:02.658Z,1006.7
2016-03-18T00:15:02.661Z,1006.68
2016-03-18T00:16:02.680Z,1006.69
2016-03-18T00:17:02.698Z,1006.69
2016-03-18T00:18:02.700Z,1006.7
2016-03-18T00:19:02.718Z,1006.73
2016-03-18T00:20:02.722Z,1006.72
2016-03-18T00:21:02.740Z,1006.67
2016-03-18T00:22:02.758Z,1006.63
2016-03-18T00:23:02.761Z,1006.6
2016-03-18T00:24:02.779Z,1006.61
2016-03-18T00:25:02.782Z,1006.62
2016-03-18T00:26:02.800Z,1006.56
2016-03-18T00:27:02.818Z,1006.53
2016-03-18T00:28:02.821Z,1006.53
2016-03-18T00:29:02.840Z,1006.49
2016-03-18T00:30:02.842Z,1006.54
2016-03-18T00:31:02.862Z,1006.45
2016-03-18T00:32:02.896Z,1006.47
2016-03-18T00:33:02.883Z,1006.48
2016-03-18T00:34:02.901Z,1006.49
2016-03-18T00:35:02.919Z,1006.5
2016-03-18T00:36:02.922Z,1006.48
2016-03-18T00:37:02.941Z,1006.47
2016-03-18T00:38:02.958Z,1006.43
2016-03-18T00:39:02.961Z,1006.44
2016-03-18T00:40:02.963Z,1006.41
2016-03-18T00:41:02.982Z,1006.41
2016-03-18T00:42:02.984Z,1006.39
2016-03-18T00:43:03.003Z,1006.38
2016-03-18T00:44:03.037Z,1006.38
2016-03-18T00:45:03.023Z,1006.32
2016-03-18T00:46:03.042Z,1006.28
2016-03-18T00:47:03.061Z,1006.24
2016-03-18T00:48:03.064Z,1006.27
2016-03-18T00:49:03.082Z,1006.25
2016-03-18T00:50:03.084Z,1006.24
2016-03-18T00:51:03.103Z,1006.3
2016-03-18T00:52:03.120Z,1006.27
2016-03-18T00:53:03.123Z,1006.28
2016-03-18T00:54:03.142Z,1006.3
2016-03-18T00:55:03.144Z,1006.3
2016-03-18T00:56:03.164Z,1006.33
2016-03-18T00:57:03.166Z,1006.33
2016-03-18T00:58:03.184Z,1006.37
2016-03-18T00:59:03.187Z,1006.35
2016-03-18T01:00:03.206Z,1006.36
2016-03-18T01:01:03.224Z,1006.34
2016-03-18T01:02:03.836Z,1006.33
2016-03-18T01:03:03.244Z,1006.33
2016-03-18T01:04:03.263Z,1006.33
2016-03-18T01:05:03.266Z,1006.31
2016-03-18T01:06:03.283Z,1006.33
2016-03-18T01:07:03.333Z,1006.33
2016-03-18T01:08:03.309Z,1006.29
2016-03-18T01:09:03.312Z,1006.34
2016-03-18T01:10:03.331Z,1006.28
2016-03-18T01:11:03.333Z,1006.3
2016-03-18T01:12:03.352Z,1006.23
2016-03-18T01:13:03.354Z,1006.22
2016-03-18T01:14:03.373Z,1006.25
2016-03-18T01:15:03.391Z,1006.21
2016-03-18T01:16:03.393Z,1006.18
2016-03-18T01:17:03.412Z,1006.14
2016-03-18T01:18:03.414Z,1006.17
2016-03-18T01:19:03.433Z,1006.15
2016-03-18T01:20:03.436Z,1006.21
2016-03-18T01:21:03.454Z,1006.25
2016-03-18T01:22:03.488Z,1006.21
2016-03-18T01:23:03.475Z,1006.19
2016-03-18T01:24:03.494Z,1006.26
2016-03-18T01:25:03.511Z,1006.22
2016-03-18T01:26:03.514Z,1006.22
2016-03-18T01:27:03.533Z,1006.18
2016-03-18T01:28:03.535Z,1006.16
2016-03-18T01:29:03.553Z,1006.15
2016-03-18T01:30:03.571Z,1006.11
2016-03-18T01:31:03.574Z,1006.07
2016-03-18T01:32:03.593Z,1006.05
2016-03-18T01:33:03.595Z,1006.05
2016-03-18T01:34:03.614Z,1006.07
2016-03-18T01:35:03.616Z,1006.08
2016-03-18T01:36:03.635Z,1006.06
2016-03-18T01:37:03.637Z,1006.03
2016-03-18T01:38:03.656Z,1006.02
2016-03-18T01:39:03.659Z,1006
2016-03-18T01:40:03.677Z,1005.94
2016-03-18T01:41:03.695Z,1005.93
2016-03-18T01:42:03.713Z,1005.89
2016-03-18T01:43:03.716Z,1005.87
2016-03-18T01:44:03.734Z,1005.82
2016-03-18T01:45:03.737Z,1005.76
2016-03-18T01:46:03.739Z,1005.77
2016-03-18T01:47:03.758Z,1005.7
2016-03-18T01:48:03.776Z,1005.68
2016-03-18T01:49:03.778Z,1005.64
2016-03-18T01:50:03.798Z,1005.68
2016-03-18T01:51:03.800Z,1005.64
2016-03-18T01:52:03.834Z,1005.66
2016-03-18T01:53:03.837Z,1005.68
2016-03-18T01:54:03.839Z,1005.67
2016-03-18T01:55:03.858Z,1005.61
2016-03-18T01:56:03.875Z,1005.64
2016-03-18T01:57:03.879Z,1005.71
2016-03-18T01:58:03.881Z,1005.69
2016-03-18T01:59:03.900Z,1005.74
2016-03-18T02:00:03.902Z,1005.74
2016-03-18T02:01:03.921Z,1005.68
2016-03-18T02:02:03.939Z,1005.66
2016-03-18T02:03:03.942Z,1005.66
2016-03-18T02:04:03.960Z,1005.71
2016-03-18T02:05:03.979Z,1005.66
2016-03-18T02:06:03.982Z,1005.67
2016-03-18T02:07:04.000Z,1005.61
2016-03-18T02:08:04.002Z,1005.64
2016-03-18T02:09:04.021Z,1005.62
2016-03-18T02:10:04.023Z,1005.63
2016-03-18T02:11:04.041Z,1005.6
2016-03-18T02:12:04.043Z,1005.59
2016-03-18T02:13:04.063Z,1005.61
2016-03-18T02:14:04.081Z,1005.57
2016-03-18T02:15:04.099Z,1005.58
2016-03-18T02:16:04.102Z,1005.56
2016-03-18T02:17:04.121Z,1005.54
2016-03-18T02:18:04.123Z,1005.51
2016-03-18T02:19:04.141Z,1005.51
2016-03-18T02:20:04.144Z,1005.52
2016-03-18T02:21:04.147Z,1005.49
2016-03-18T02:22:04.165Z,1005.43
2016-03-18T02:23:04.168Z,1005.43
2016-03-18T02:24:04.186Z,1005.43
2016-03-18T02:25:04.203Z,1005.44
2016-03-18T02:26:04.206Z,1005.39
2016-03-18T02:27:04.225Z,1005.4
2016-03-18T02:28:04.228Z,1005.35
2016-03-18T02:29:04.246Z,1005.34
2016-03-18T02:30:04.264Z,1005.32
2016-03-18T02:31:04.267Z,1005.3
2016-03-18T02:32:04.285Z,1005.33
2016-03-18T02:33:04.288Z,1005.32
2016-03-18T02:34:04.307Z,1005.33
2016-03-18T02:35:04.309Z,1005.3
2016-03-18T02:36:04.328Z,1005.31
2016-03-18T02:37:04.346Z,1005.32
2016-03-18T02:38:04.349Z,1005.31
2016-03-18T02:39:04.366Z,1005.3
2016-03-18T02:40:04.365Z,1005.27
2016-03-18T02:41:04.379Z,1005.24
2016-03-18T02:42:04.397Z,1005.22
2016-03-18T02:43:04.385Z,1005.19
2016-03-18T02:44:04.404Z,1005.2
2016-03-18T02:45:04.406Z,1005.17
2016-03-18T02:46:04.424Z,1005.18
2016-03-18T02:47:04.426Z,1005.18
2016-03-18T02:48:04.446Z,1005.14
2016-03-18T02:49:04.448Z,1005.13
2016-03-18T02:50:04.467Z,1005.1
2016-03-18T02:51:04.485Z,1005.05
2016-03-18T02:52:04.535Z,1005.05
2016-03-18T02:53:04.506Z,1005.06
2016-03-18T02:54:04.509Z,1005.07
2016-03-18T02:55:04.528Z,1005.06
2016-03-18T02:56:04.530Z,1005.12
2016-03-18T02:57:04.548Z,1005.12
2016-03-18T02:58:04.550Z,1005.13
2016-03-18T02:59:04.569Z,1005.16
2016-03-18T03:00:04.571Z,1005.17
2016-03-18T03:01:04.589Z,1005.12
2016-03-18T03:02:04.608Z,1005.09
2016-03-18T03:03:04.626Z,1005.12
2016-03-18T03:04:04.629Z,1005.06
2016-03-18T03:05:04.648Z,1005.1
2016-03-18T03:06:04.650Z,1005.05
2016-03-18T03:07:04.669Z,1005.05
2016-03-18T03:08:04.671Z,1005.03
2016-03-18T03:09:04.690Z,1004.99
2016-03-18T03:10:04.692Z,1005
2016-03-18T03:11:04.711Z,1004.99
2016-03-18T03:12:04.713Z,1004.97
2016-03-18T03:13:04.732Z,1005.01
2016-03-18T03:14:04.734Z,1005
2016-03-18T03:15:04.752Z,1004.99
2016-03-18T03:16:04.770Z,1004.97
2016-03-18T03:17:04.774Z,1004.91
2016-03-18T03:18:04.776Z,1004.91
2016-03-18T03:19:04.795Z,1004.93
2016-03-18T03:20:04.813Z,1004.98
2016-03-18T03:21:04.816Z,1004.94
2016-03-18T03:22:04.834Z,1004.94
2016-03-18T03:23:04.837Z,1004.93
2016-03-18T03:24:04.855Z,1004.92
2016-03-18T03:25:04.858Z,1004.86
2016-03-18T03:26:04.876Z,1004.83
2016-03-18T03:27:04.894Z,1004.86
2016-03-18T03:28:04.897Z,1004.81
2016-03-18T03:29:04.915Z,1004.81
2016-03-18T03:30:04.917Z,1004.8
2016-03-18T03:31:04.936Z,1004.77
2016-03-18T03:32:04.939Z,1004.74
2016-03-18T03:33:04.957Z,1004.69
2016-03-18T03:34:04.976Z,1004.73
2016-03-18T03:35:04.978Z,1004.79
2016-03-18T03:36:04.981Z,1004.77
2016-03-18T03:37:04.999Z,1004.76
2016-03-18T03:38:05.002Z,1004.82
2016-03-18T03:39:05.020Z,1004.8
2016-03-18T03:40:05.038Z,1004.78
2016-03-18T03:41:05.041Z,1004.76
2016-03-18T03:42:05.044Z,1004.74
2016-03-18T03:43:05.077Z,1004.73
2016-03-18T03:44:05.080Z,1004.73
2016-03-18T03:45:05.099Z,1004.74
2016-03-18T03:46:05.102Z,1004.76
2016-03-18T03:47:05.104Z,1004.77
2016-03-18T03:48:05.123Z,1004.75
2016-03-18T03:49:05.141Z,1004.78
2016-03-18T03:50:05.144Z,1004.73
2016-03-18T03:51:05.162Z,1004.73
2016-03-18T03:52:05.165Z,1004.69
2016-03-18T03:53:05.183Z,1004.66
2016-03-18T03:54:05.186Z,1004.67
2016-03-18T03:55:05.204Z,1004.66
2016-03-18T03:56:05.206Z,1004.67
2016-03-18T03:57:05.225Z,1004.69
2016-03-18T03:58:05.242Z,1004.64
2016-03-18T03:59:05.245Z,1004.66
2016-03-18T04:00:05.248Z,1004.65
2016-03-18T04:01:05.267Z,1004.62
2016-03-18T04:02:05.286Z,1004.68
2016-03-18T04:03:05.288Z,1004.68
2016-03-18T04:04:05.306Z,1004.65
2016-03-18T04:05:05.309Z,1004.69
2016-03-18T04:06:05.327Z,1004.64
2016-03-18T04:07:05.346Z,1004.66
2016-03-18T04:08:05.355Z,1004.66
2016-03-18T04:09:05.357Z,1004.65
2016-03-18T04:10:05.376Z,1004.66
2016-03-18T04:11:05.379Z,1004.65
2016-03-18T04:12:05.397Z,1004.66
2016-03-18T04:13:05.400Z,1004.67
2016-03-18T04:14:05.418Z,1004.7
2016-03-18T04:15:05.421Z,1004.67
2016-03-18T04:16:05.439Z,1004.62
2016-03-18T04:17:05.442Z,1004.6
2016-03-18T04:18:05.460Z,1004.64
2016-03-18T04:19:05.463Z,1004.65
2016-03-18T04:20:05.481Z,1004.65
2016-03-18T04:21:05.499Z,1004.62
2016-03-18T04:22:05.502Z,1004.62
2016-03-18T04:23:05.519Z,1004.66
2016-03-18T04:24:05.522Z,1004.69
2016-03-18T04:25:05.541Z,1004.66
2016-03-18T04:26:05.560Z,1004.74
2016-03-18T04:27:05.562Z,1004.7
2016-03-18T04:28:05.566Z,1004.71
2016-03-18T04:29:05.583Z,1004.65
2016-03-18T04:30:05.602Z,1004.65
2016-03-18T04:31:05.604Z,1004.67
2016-03-18T04:32:05.607Z,1004.65
2016-03-18T04:33:05.625Z,1004.64
2016-03-18T04:34:05.628Z,1004.64
2016-03-18T04:35:05.646Z,1004.62
2016-03-18T04:36:05.665Z,1004.67
2016-03-18T04:37:05.667Z,1004.64
2016-03-18T04:38:05.685Z,1004.67
2016-03-18T04:39:05.687Z,1004.68
2016-03-18T04:40:05.707Z,1004.65
2016-03-18T04:41:05.709Z,1004.64
2016-03-18T04:42:05.728Z,1004.64
2016-03-18T04:43:05.730Z,1004.59
2016-03-18T04:44:05.749Z,1004.55
2016-03-18T04:45:05.767Z,1004.58
2016-03-18T04:46:05.770Z,1004.55
2016-03-18T04:47:05.772Z,1004.54
2016-03-18T04:48:05.791Z,1004.57
2016-03-18T04:49:05.809Z,1004.56
2016-03-18T04:50:05.812Z,1004.52
2016-03-18T04:51:05.830Z,1004.55
2016-03-18T04:52:05.833Z,1004.56
2016-03-18T04:53:05.850Z,1004.57
2016-03-18T04:54:05.853Z,1004.54
2016-03-18T04:55:05.856Z,1004.62
2016-03-18T04:56:05.891Z,1004.62
2016-03-18T04:57:05.893Z,1004.64
2016-03-18T04:58:05.896Z,1004.64
2016-03-18T04:59:05.914Z,1004.61
2016-03-18T05:00:05.917Z,1004.56
2016-03-18T05:01:05.935Z,1004.56
2016-03-18T05:02:05.953Z,1004.57
2016-03-18T05:03:05.956Z,1004.55
2016-03-18T05:04:05.974Z,1004.55
2016-03-18T05:05:05.977Z,1004.53
2016-03-18T05:06:05.995Z,1004.55
2016-03-18T05:07:06.013Z,1004.55
2016-03-18T05:08:06.015Z,1004.52
2016-03-18T05:09:06.018Z,1004.51
2016-03-18T05:10:06.053Z,1004.51
2016-03-18T05:11:06.056Z,1004.54
2016-03-18T05:12:06.058Z,1004.49
2016-03-18T05:13:06.077Z,1004.47
2016-03-18T05:14:06.079Z,1004.5
2016-03-18T05:15:06.082Z,1004.48
2016-03-18T05:16:06.101Z,1004.44
2016-03-18T05:17:06.103Z,1004.52
2016-03-18T05:18:06.122Z,1004.47
2016-03-18T05:19:06.140Z,1004.41
2016-03-18T05:20:06.142Z,1004.46
2016-03-18T05:21:06.161Z,1004.53
2016-03-18T05:22:06.163Z,1004.51
2016-03-18T05:23:06.181Z,1004.53
2016-03-18T05:24:06.200Z,1004.52
2016-03-18T05:25:06.202Z,1004.56
2016-03-18T05:26:06.205Z,1004.53
2016-03-18T05:27:06.223Z,1004.56
2016-03-18T05:28:06.241Z,1004.55
2016-03-18T05:29:06.244Z,1004.58
2016-03-18T05:30:06.247Z,1004.58
2016-03-18T05:31:06.265Z,1004.57
2016-03-18T05:32:06.284Z,1004.56
2016-03-18T05:33:06.287Z,1004.59
2016-03-18T05:34:06.305Z,1004.63
2016-03-18T05:35:06.324Z,1004.59
2016-03-18T05:36:06.327Z,1004.6
2016-03-18T05:37:06.344Z,1004.61
2016-03-18T05:38:06.347Z,1004.58
2016-03-18T05:39:06.365Z,1004.6
2016-03-18T05:40:06.367Z,1004.63
2016-03-18T05:41:06.386Z,1004.66
2016-03-18T05:42:06.389Z,1004.69
2016-03-18T05:43:06.407Z,1004.66
2016-03-18T05:44:06.410Z,1004.67
2016-03-18T05:45:06.428Z,1004.66
2016-03-18T05:46:06.431Z,1004.67
2016-03-18T05:47:06.449Z,1004.63
2016-03-18T05:48:06.468Z,1004.67
2016-03-18T05:49:06.470Z,1004.6
2016-03-18T05:50:06.489Z,1004.65
2016-03-18T05:51:06.491Z,1004.64
2016-03-18T05:52:06.509Z,1004.66
2016-03-18T05:53:06.512Z,1004.66
2016-03-18T05:54:06.531Z,1004.65
2016-03-18T05:55:06.533Z,1004.71
2016-03-18T05:56:06.552Z,1004.69
2016-03-18T05:57:06.570Z,1004.7
2016-03-18T05:58:06.573Z,1004.75
2016-03-18T05:59:06.591Z,1004.77
2016-03-18T06:00:06.609Z,1004.73
2016-03-18T06:01:06.612Z,1004.77
2016-03-18T06:02:06.630Z,1004.77
2016-03-18T06:03:06.633Z,1004.81
2016-03-18T06:04:06.651Z,1004.81
2016-03-18T06:05:06.654Z,1004.76
2016-03-18T06:06:06.671Z,1004.76
2016-03-18T06:07:06.674Z,1004.8
2016-03-18T06:08:06.693Z,1004.78
2016-03-18T06:09:06.696Z,1004.78
2016-03-18T06:10:06.714Z,1004.76
2016-03-18T06:11:06.732Z,1004.79
2016-03-18T06:12:06.751Z,1004.79
2016-03-18T06:13:06.754Z,1004.84
2016-03-18T06:14:06.756Z,1004.85
2016-03-18T06:15:06.775Z,1004.86
2016-03-18T06:16:06.793Z,1004.88
2016-03-18T06:17:06.796Z,1004.85
2016-03-18T06:18:06.814Z,1004.84
2016-03-18T06:19:06.816Z,1004.89
2016-03-18T06:20:06.834Z,1004.87
2016-03-18T06:21:06.853Z,1004.88
2016-03-18T06:22:06.856Z,1004.93
2016-03-18T06:23:06.874Z,1004.89
2016-03-18T06:24:06.877Z,1004.91
2016-03-18T06:25:06.895Z,1004.85
2016-03-18T06:26:06.898Z,1004.9
2016-03-18T06:27:06.916Z,1004.9
2016-03-18T06:28:06.935Z,1004.92
2016-03-18T06:29:06.937Z,1004.89
2016-03-18T06:30:06.956Z,1004.91
2016-03-18T06:31:06.958Z,1004.87
2016-03-18T06:32:06.977Z,1004.89
2016-03-18T06:33:06.979Z,1004.91
2016-03-18T06:34:06.997Z,1004.9
2016-03-18T06:35:07.016Z,1004.91
2016-03-18T06:36:07.019Z,1004.92
2016-03-18T06:37:07.037Z,1004.94
2016-03-18T06:38:07.040Z,1004.89
2016-03-18T06:39:07.058Z,1004.94
2016-03-18T06:40:07.076Z,1004.91
2016-03-18T06:41:07.079Z,1004.89
2016-03-18T06:42:07.097Z,1004.93
2016-03-18T06:43:07.116Z,1004.9
2016-03-18T06:44:07.118Z,1004.92
2016-03-18T06:45:07.121Z,1004.94
2016-03-18T06:46:07.139Z,1004.98
2016-03-18T06:47:07.157Z,1004.94
2016-03-18T06:48:07.160Z,1004.95
2016-03-18T06:49:07.179Z,1004.99
2016-03-18T06:50:07.197Z,1005
2016-03-18T06:51:07.200Z,1005.05
2016-03-18T06:52:07.218Z,1005.05
2016-03-18T06:53:07.237Z,1005.06
2016-03-18T06:54:07.239Z,1005.09
2016-03-18T06:55:07.242Z,1005.08
2016-03-18T06:56:07.249Z,1005.16
2016-03-18T06:57:07.240Z,1005.13
2016-03-18T06:58:07.245Z,1005.2
2016-03-18T06:59:07.251Z,1005.17
2016-03-18T07:00:07.242Z,1005.18
2016-03-18T07:01:07.254Z,1005.15
2016-03-18T07:02:07.269Z,1005.15
2016-03-18T07:03:07.267Z,1005.17
2016-03-18T07:04:07.267Z,1005.22
2016-03-18T07:05:07.281Z,1005.19
2016-03-18T07:06:07.280Z,1005.16
2016-03-18T07:07:07.296Z,1005.14
2016-03-18T07:08:07.313Z,1005.21
2016-03-18T07:09:07.315Z,1005.26
2016-03-18T07:10:07.316Z,1005.28
2016-03-18T07:11:07.333Z,1005.27
2016-03-18T07:12:07.335Z,1005.25
2016-03-18T07:13:07.353Z,1005.27
2016-03-18T07:14:07.355Z,1005.27
2016-03-18T07:15:07.373Z,1005.22
2016-03-18T07:16:07.375Z,1005.25
2016-03-18T07:17:07.392Z,1005.27
2016-03-18T07:18:07.395Z,1005.26
2016-03-18T07:19:07.413Z,1005.26
2016-03-18T07:20:07.431Z,1005.26
2016-03-18T07:21:07.448Z,1005.25
2016-03-18T07:22:07.468Z,1005.26
2016-03-18T07:23:07.470Z,1005.29
2016-03-18T07:24:07.473Z,1005.25
2016-03-18T07:25:07.491Z,1005.27
2016-03-18T07:26:07.494Z,1005.33
2016-03-18T07:27:07.512Z,1005.28
2016-03-18T07:28:07.515Z,1005.34
2016-03-18T07:29:07.534Z,1005.39
2016-03-18T07:30:07.536Z,1005.36
2016-03-18T07:31:07.553Z,1005.38
2016-03-18T07:32:07.557Z,1005.37
2016-03-18T07:33:07.575Z,1005.32
2016-03-18T07:34:07.578Z,1005.33
2016-03-18T07:35:07.596Z,1005.31
2016-03-18T07:36:07.599Z,1005.35
2016-03-18T07:37:07.617Z,1005.3
2016-03-18T07:38:07.620Z,1005.33
2016-03-18T07:39:07.638Z,1005.33
2016-03-18T07:40:07.657Z,1005.33
2016-03-18T07:41:07.659Z,1005.29
2016-03-18T07:42:07.677Z,1005.32
2016-03-18T07:43:07.680Z,1005.33
2016-03-18T07:44:07.698Z,1005.34
2016-03-18T07:45:07.701Z,1005.35
2016-03-18T07:46:07.704Z,1005.38
2016-03-18T07:47:07.737Z,1005.38
2016-03-18T07:48:07.741Z,1005.33
2016-03-18T07:49:07.743Z,1005.42
2016-03-18T07:50:07.762Z,1005.39
2016-03-18T07:51:07.779Z,1005.42
2016-03-18T07:52:07.782Z,1005.34
2016-03-18T07:53:07.801Z,1005.4
2016-03-18T07:54:07.803Z,1005.38
2016-03-18T07:55:07.822Z,1005.39
2016-03-18T07:56:07.840Z,1005.37
2016-03-18T07:57:07.843Z,1005.36
2016-03-18T07:58:07.862Z,1005.36
2016-03-18T07:59:07.864Z,1005.42
2016-03-18T08:00:07.881Z,1005.37
2016-03-18T08:01:07.885Z,1005.4
2016-03-18T08:02:07.903Z,1005.39
2016-03-18T08:03:07.906Z,1005.38
2016-03-18T08:04:07.925Z,1005.32
2016-03-18T08:05:07.927Z,1005.27
2016-03-18T08:06:07.945Z,1005.26
2016-03-18T08:07:07.963Z,1005.32
2016-03-18T08:08:07.983Z,1005.3
2016-03-18T08:09:07.985Z,1005.29
2016-03-18T08:10:07.987Z,1005.3
2016-03-18T08:11:08.005Z,1005.29
2016-03-18T08:12:08.008Z,1005.33
2016-03-18T08:13:08.026Z,1005.33
2016-03-18T08:14:08.044Z,1005.35
2016-03-18T08:15:08.047Z,1005.29
2016-03-18T08:16:08.049Z,1005.25
2016-03-18T08:17:08.069Z,1005.28
2016-03-18T08:18:08.087Z,1005.24
2016-03-18T08:19:08.090Z,1005.22
2016-03-18T08:20:08.107Z,1005.2
2016-03-18T08:21:08.126Z,1005.26
2016-03-18T08:22:08.145Z,1005.2
2016-03-18T08:23:08.147Z,1005.21
2016-03-18T08:24:08.165Z,1005.16
2016-03-18T08:25:08.168Z,1005.19
2016-03-18T08:26:08.217Z,1005.15
2016-03-18T08:27:08.190Z,1005.13
2016-03-18T08:28:08.207Z,1005.17
2016-03-18T08:29:08.209Z,1005.16
2016-03-18T08:30:08.229Z,1005.13
2016-03-18T08:31:08.247Z,1005.15
2016-03-18T08:32:08.265Z,1005.17
2016-03-18T08:33:08.267Z,1005.2
2016-03-18T08:34:08.270Z,1005.16
2016-03-18T08:35:08.288Z,1005.25
2016-03-18T08:36:08.292Z,1005.27
2016-03-18T08:37:08.310Z,1005.21
2016-03-18T08:38:08.328Z,1005.24
2016-03-18T08:39:08.330Z,1005.21
2016-03-18T08:40:08.349Z,1005.23
2016-03-18T08:41:08.352Z,1005.2
2016-03-18T08:42:08.369Z,1005.2
2016-03-18T08:43:08.372Z,1005.23
2016-03-18T08:44:08.391Z,1005.29
2016-03-18T08:45:08.410Z,1005.28
2016-03-18T08:46:08.428Z,1005.36
2016-03-18T08:47:08.430Z,1005.39
2016-03-18T08:48:08.448Z,1005.39
2016-03-18T08:49:08.452Z,1005.4
2016-03-18T08:50:08.470Z,1005.4
2016-03-18T08:51:08.487Z,1005.38
2016-03-18T08:52:08.491Z,1005.38
2016-03-18T08:53:08.509Z,1005.37
2016-03-18T08:54:08.527Z,1005.34
2016-03-18T08:55:08.530Z,1005.26
2016-03-18T08:56:08.548Z,1005.24
2016-03-18T08:57:08.550Z,1005.25
2016-03-18T08:58:08.570Z,1005.28
2016-03-18T08:59:08.572Z,1005.26
2016-03-18T09:00:08.589Z,1005.33
2016-03-18T09:01:08.592Z,1005.33
2016-03-18T09:02:08.611Z,1005.29
2016-03-18T09:03:08.630Z,1005.27
2016-03-18T09:04:08.633Z,1005.23
2016-03-18T09:05:08.666Z,1005.25
2016-03-18T09:06:08.669Z,1005.29
2016-03-18T09:07:08.672Z,1005.27
2016-03-18T09:08:08.689Z,1005.32
2016-03-18T09:09:08.708Z,1005.31
2016-03-18T09:10:08.726Z,1005.29
2016-03-18T09:11:08.730Z,1005.33
2016-03-18T09:12:08.747Z,1005.26
2016-03-18T09:13:08.750Z,1005.25
2016-03-18T09:14:08.769Z,1005.15
2016-03-18T09:15:08.771Z,1005.21
2016-03-18T09:16:08.790Z,1005.16
2016-03-18T09:17:08.793Z,1005.12
2016-03-18T09:18:08.810Z,1005.09
2016-03-18T09:19:08.829Z,1005.07
2016-03-18T09:20:08.846Z,1005.07
2016-03-18T09:21:08.849Z,1005.07
2016-03-18T09:22:08.868Z,1005.11
2016-03-18T09:23:08.871Z,1005.09
2016-03-18T09:24:08.889Z,1005.05
2016-03-18T09:25:08.892Z,1005.07
2016-03-18T09:26:08.910Z,1005.04
2016-03-18T09:27:08.928Z,1005.05
2016-03-18T09:28:08.931Z,1005.09
2016-03-18T09:29:08.950Z,1005.13
2016-03-18T09:30:08.968Z,1005.13
2016-03-18T09:31:08.970Z,1005.18
2016-03-18T09:32:08.989Z,1005.26
2016-03-18T09:33:09.023Z,1005.16
2016-03-18T09:34:09.009Z,1005.21
2016-03-18T09:35:09.028Z,1005.22
2016-03-18T09:36:09.030Z,1005.24
2016-03-18T09:37:09.050Z,1005.23
2016-03-18T09:38:09.052Z,1005.31
2016-03-18T09:39:09.070Z,1005.3
2016-03-18T09:40:09.088Z,1005.26
2016-03-18T09:41:09.091Z,1005.29
2016-03-18T09:42:09.110Z,1005.29
2016-03-18T09:43:09.127Z,1005.28
2016-03-18T09:44:09.130Z,1005.28
2016-03-18T09:45:09.149Z,1005.25
2016-03-18T09:46:09.151Z,1005.26
2016-03-18T09:47:09.170Z,1005.3
2016-03-18T09:48:09.188Z,1005.32
2016-03-18T09:49:09.190Z,1005.32
2016-03-18T09:50:09.210Z,1005.34
2016-03-18T09:51:09.227Z,1005.27
2016-03-18T09:52:09.229Z,1005.32
2016-03-18T09:53:09.249Z,1005.32
2016-03-18T09:54:09.267Z,1005.32
2016-03-18T09:55:09.270Z,1005.3
2016-03-18T09:56:09.288Z,1005.3
2016-03-18T09:57:09.321Z,1005.27
2016-03-18T09:58:09.309Z,1005.29
2016-03-18T09:59:09.326Z,1005.29
2016-03-18T10:00:09.345Z,1005.33
2016-03-18T10:01:09.347Z,1005.4
2016-03-18T10:02:09.366Z,1005.44
2016-03-18T10:03:09.384Z,1005.45
2016-03-18T10:04:09.387Z,1005.48
2016-03-18T10:05:09.405Z,1005.47
2016-03-18T10:06:09.425Z,1005.52
2016-03-18T10:07:09.427Z,1005.51
2016-03-18T10:08:09.444Z,1005.44
2016-03-18T10:09:09.448Z,1005.43
2016-03-18T10:10:09.466Z,1005.42
2016-03-18T10:11:09.484Z,1005.43
2016-03-18T10:12:09.487Z,1005.47
2016-03-18T10:13:09.505Z,1005.49
2016-03-18T10:14:09.508Z,1005.55
2016-03-18T10:15:09.526Z,1005.5
2016-03-18T10:16:09.544Z,1005.57
2016-03-18T10:17:09.547Z,1005.5
2016-03-18T10:18:09.565Z,1005.55
2016-03-18T10:19:09.585Z,1005.56
2016-03-18T10:20:09.602Z,1005.53
2016-03-18T10:21:09.621Z,1005.58
2016-03-18T10:22:09.623Z,1005.6
2016-03-18T10:23:09.626Z,1005.58
2016-03-18T10:24:09.643Z,1005.6
2016-03-18T10:25:09.662Z,1005.55
2016-03-18T10:26:09.665Z,1005.58
2016-03-18T10:27:09.683Z,1005.58
2016-03-18T10:28:09.702Z,1005.5
2016-03-18T10:29:09.704Z,1005.5
2016-03-18T10:30:09.723Z,1005.49
2016-03-18T10:31:09.725Z,1005.46
2016-03-18T10:32:09.744Z,1005.43
2016-03-18T10:33:09.761Z,1005.48
2016-03-18T10:34:09.765Z,1005.5
2016-03-18T10:35:09.784Z,1005.48
2016-03-18T10:36:09.801Z,1005.41
2016-03-18T10:37:09.804Z,1005.36
2016-03-18T10:38:09.822Z,1005.34
2016-03-18T10:39:09.825Z,1005.35
2016-03-18T10:40:09.844Z,1005.29
2016-03-18T10:41:09.861Z,1005.37
2016-03-18T10:42:09.880Z,1005.41
2016-03-18T10:43:09.883Z,1005.44
2016-03-18T10:44:09.902Z,1005.44
2016-03-18T10:45:09.919Z,1005.41
2016-03-18T10:46:09.922Z,1005.32
2016-03-18T10:47:09.940Z,1005.31
2016-03-18T10:48:09.958Z,1005.32
2016-03-18T10:49:09.961Z,1005.3
2016-03-18T10:50:09.979Z,1005.26
2016-03-18T10:51:09.999Z,1005.24
2016-03-18T10:52:10.001Z,1005.2
2016-03-18T10:53:10.018Z,1005.18
2016-03-18T10:54:10.038Z,1005.16
2016-03-18T10:55:10.040Z,1005.24
2016-03-18T10:56:10.043Z,1005.25
2016-03-18T10:57:10.062Z,1005.25
2016-03-18T10:58:10.079Z,1005.23
2016-03-18T10:59:10.098Z,1005.23
2016-03-18T11:00:10.101Z,1005.28
2016-03-18T11:01:10.118Z,1005.28
2016-03-18T11:02:10.137Z,1005.26
2016-03-18T11:03:10.156Z,1005.31
2016-03-18T11:04:10.158Z,1005.23
2016-03-18T11:05:10.176Z,1005.26
2016-03-18T11:06:10.179Z,1005.26
2016-03-18T11:07:10.197Z,1005.23
2016-03-18T11:08:10.200Z,1005.23
2016-03-18T11:09:10.234Z,1005.27
2016-03-18T11:10:10.236Z,1005.21
2016-03-18T11:11:10.239Z,1005.14
2016-03-18T11:12:10.258Z,1005.12
2016-03-18T11:13:10.275Z,1005.07
2016-03-18T11:14:10.278Z,1005.11
2016-03-18T11:15:10.297Z,1005.04
2016-03-18T11:16:10.316Z,1005.07
2016-03-18T11:17:10.318Z,1005.08
2016-03-18T11:18:10.336Z,1005.1
2016-03-18T11:19:10.355Z,1005.14
2016-03-18T11:20:10.373Z,1005.1
2016-03-18T11:21:10.376Z,1005.11
2016-03-18T11:22:10.379Z,1005.15
2016-03-18T11:23:10.413Z,1005.16
2016-03-18T11:24:10.415Z,1005.11
2016-03-18T11:25:10.433Z,1005.11
2016-03-18T11:26:10.435Z,1005.1
2016-03-18T11:27:10.454Z,1005.06
2016-03-18T11:28:10.457Z,1005.07
2016-03-18T11:29:10.476Z,1005.04
2016-03-18T11:30:10.493Z,1004.97
2016-03-18T11:31:10.511Z,1004.96
2016-03-18T11:32:10.515Z,1004.97
2016-03-18T11:33:10.533Z,1004.95
2016-03-18T11:34:10.536Z,1004.98
2016-03-18T11:35:10.553Z,1005
2016-03-18T11:36:10.572Z,1005.02
2016-03-18T11:37:10.590Z,1005.09
2016-03-18T11:38:10.592Z,1005.12
2016-03-18T11:39:10.611Z,1005.15
2016-03-18T11:40:10.614Z,1005.11
2016-03-18T11:41:10.633Z,1005.08
2016-03-18T11:42:10.650Z,1005.11
2016-03-18T11:43:10.653Z,1005.15
2016-03-18T11:44:10.672Z,1005.11
2016-03-18T11:45:10.691Z,1005.13
2016-03-18T11:46:10.693Z,1005.1
2016-03-18T11:47:10.711Z,1005.09
2016-03-18T11:48:10.714Z,1005.12
2016-03-18T11:49:10.732Z,1005.13
2016-03-18T11:50:10.750Z,1005.12
2016-03-18T11:51:10.752Z,1005.05
2016-03-18T11:52:10.772Z,1005
2016-03-18T11:53:10.790Z,1005.02
2016-03-18T11:54:10.792Z,1005.01
2016-03-18T11:55:10.810Z,1005.03
2016-03-18T11:56:10.813Z,1005.02
2016-03-18T11:57:10.832Z,1005.07
2016-03-18T11:58:10.855Z,1005.1
2016-03-18T11:59:10.857Z,1005.11
2016-03-18T12:00:10.876Z,1005.12
2016-03-18T12:01:10.894Z,1005.08
2016-03-18T12:02:10.912Z,1005.04
2016-03-18T12:03:10.915Z,1005.06
2016-03-18T12:04:10.933Z,1004.94
2016-03-18T12:05:10.936Z,1004.97
2016-03-18T12:06:10.955Z,1004.97
2016-03-18T12:07:10.958Z,1004.96
2016-03-18T12:08:10.976Z,1004.98